Time;durP1;ratioP1;P1;durP2;ratioP2;P2;SDS_P1;SDS_P2;PMS_P1;PMS_P2;Temp;Humidity;BMP_temperature;BMP_pressure;BME280_temperature;BME280_humidity;BME280_pressure;Samples;Min_cycle;Max_cycle;Signal;HPM_P1;HPM_P2
2023/09/25 00:01:38;;;;;;;15.45;7.28;;;;;;;17.72;65.97;101150.86;1784843;80;21118;-73
2023/09/25 00:04:08;;;;;;;12.63;6.70;;;;;;;17.69;66.14;101152.70;1785064;80;21193;-73
2023/09/25 00:06:37;;;;;;;17.17;7.22;;;;;;;17.68;66.28;101152.39;1785148;80;21558;-73
2023/09/25 00:09:07;;;;;;;11.85;7.28;;;;;;;17.68;66.29;101153.78;1777114;80;21563;-73
2023/09/25 00:11:36;;;;;;;13.58;6.72;;;;;;;17.64;66.36;101156.12;1767531;81;21135;-72
2023/09/25 00:14:06;;;;;;;13.08;6.87;;;;;;;17.60;66.37;101158.19;1767436;81;21107;-72
2023/09/25 00:16:36;;;;;;;11.78;6.67;;;;;;;17.56;66.55;101156.41;1767345;81;21155;-73
2023/09/25 00:19:06;;;;;;;11.53;7.17;;;;;;;17.57;66.66;101164.17;1767433;81;21111;-73
2023/09/25 00:21:36;;;;;;;11.75;7.20;;;;;;;17.57;66.76;101155.86;1767583;81;21099;-71
2023/09/25 00:24:07;;;;;;;11.95;6.28;;;;;;;17.58;66.81;101157.02;1767595;81;21170;-71
2023/09/25 00:26:37;;;;;;;14.25;7.00;;;;;;;17.60;66.78;101151.25;1767376;81;21158;-74
2023/09/25 00:29:06;;;;;;;13.18;7.25;;;;;;;17.60;66.71;101152.11;1767667;81;21147;-71
2023/09/25 00:31:36;;;;;;;10.20;7.00;;;;;;;17.58;66.70;101157.56;1767396;81;21109;-71
2023/09/25 00:34:06;;;;;;;14.87;7.05;;;;;;;17.51;66.78;101170.59;1767630;81;21096;-74
2023/09/25 00:36:37;;;;;;;13.58;6.75;;;;;;;17.41;67.02;101182.16;1767412;81;21116;-71
2023/09/25 00:39:07;;;;;;;14.55;6.85;;;;;;;17.37;67.40;101190.08;1767392;80;21154;-73
2023/09/25 00:41:37;;;;;;;10.43;6.22;;;;;;;17.41;67.56;101180.24;1767710;81;21119;-72
2023/09/25 00:44:08;;;;;;;13.15;6.60;;;;;;;17.48;67.51;101176.58;1767441;81;21155;-73
2023/09/25 00:46:36;;;;;;;14.15;6.97;;;;;;;17.51;67.35;101192.75;1767689;80;21096;-73
2023/09/25 00:49:06;;;;;;;13.08;7.05;;;;;;;17.49;67.45;101187.44;1767701;81;21103;-72
2023/09/25 00:51:36;;;;;;;13.38;6.87;;;;;;;17.52;67.61;101181.45;1767419;81;21108;-71
2023/09/25 00:54:05;;;;;;;16.48;7.30;;;;;;;17.59;67.61;101171.19;1767584;81;21590;-74
2023/09/25 00:56:36;;;;;;;13.40;7.17;;;;;;;17.65;67.55;101179.14;1767525;81;21131;-74
2023/09/25 00:59:05;;;;;;;15.13;7.30;;;;;;;17.66;67.60;101180.84;1767574;81;21575;-73
2023/09/25 01:01:34;;;;;;;14.63;7.83;;;;;;;17.68;67.76;101180.11;1767945;81;21178;-72
2023/09/25 01:04:05;;;;;;;15.23;7.65;;;;;;;17.70;67.91;101180.20;1767634;81;21143;-74
2023/09/25 01:06:35;;;;;;;18.30;7.92;;;;;;;17.76;68.03;101182.60;1767531;81;21127;-73
2023/09/25 01:09:04;;;;;;;15.28;7.90;;;;;;;17.78;68.08;101185.14;1768845;80;21107;-74
2023/09/25 01:11:33;;;;;;;18.35;8.68;;;;;;;17.82;68.16;101183.08;1772641;81;21138;-73
2023/09/25 01:14:04;;;;;;;11.65;8.00;;;;;;;17.84;68.17;101185.09;1772677;81;21127;-72
2023/09/25 01:16:33;;;;;;;16.05;8.18;;;;;;;17.83;68.14;101182.00;1772630;81;21099;-74
2023/09/25 01:19:06;;;;;;;19.57;8.43;;;;;;;17.82;68.24;101183.08;1772793;81;21620;-73
2023/09/25 01:21:36;;;;;;;16.37;8.23;;;;;;;17.84;68.31;101175.92;1772756;81;21155;-72
2023/09/25 01:24:06;;;;;;;15.90;8.25;;;;;;;17.84;68.42;101173.16;1772819;81;21135;-73
2023/09/25 01:26:37;;;;;;;16.37;8.05;;;;;;;17.83;68.58;101178.38;1772646;81;21143;-72
2023/09/25 01:29:06;;;;;;;14.75;8.78;;;;;;;17.81;68.67;101174.98;1772555;81;21119;-73
2023/09/25 01:31:36;;;;;;;12.03;8.05;;;;;;;17.78;68.73;101178.22;1772727;81;21155;-72
2023/09/25 01:34:06;;;;;;;14.90;8.70;;;;;;;17.76;68.91;101174.28;1772671;81;21115;-74
2023/09/25 01:36:35;;;;;;;14.90;8.35;;;;;;;17.77;69.03;101179.30;1772582;81;21624;-72
2023/09/25 01:39:08;;;;;;;15.75;9.08;;;;;;;17.77;69.11;101183.45;1772796;80;21162;-74
2023/09/25 01:41:35;;;;;;;15.55;9.25;;;;;;;17.75;69.18;101189.22;1772529;81;21115;-72
2023/09/25 01:44:07;;;;;;;16.55;8.80;;;;;;;17.77;69.17;101191.77;1772748;81;21139;-72
2023/09/25 01:46:36;;;;;;;18.00;9.18;;;;;;;17.78;69.14;101194.31;1772817;81;21550;-73
2023/09/25 01:49:05;;;;;;;16.02;9.38;;;;;;;17.77;69.09;101198.70;1772835;81;21080;-74
2023/09/25 01:51:34;;;;;;;16.05;9.50;;;;;;;17.77;69.14;101191.23;1772570;81;21118;-73
2023/09/25 01:54:04;;;;;;;19.60;9.50;;;;;;;17.79;69.09;101189.62;1772609;81;21139;-73
2023/09/25 01:56:33;;;;;;;16.27;11.10;;;;;;;17.76;69.04;101185.91;1772643;81;21162;-73
2023/09/25 01:59:02;;;;;;;20.00;10.08;;;;;;;17.73;69.08;101191.38;1773029;81;21154;-73
2023/09/25 02:01:31;;;;;;;18.05;9.43;;;;;;;17.75;69.09;101197.53;1772624;81;21159;-74
2023/09/25 02:04:00;;;;;;;16.97;10.15;;;;;;;17.79;69.02;101200.70;1772613;81;21597;-73
2023/09/25 02:06:29;;;;;;;18.62;10.05;;;;;;;17.79;68.95;101199.32;1772614;81;21606;-72
2023/09/25 02:08:58;;;;;;;15.50;9.80;;;;;;;17.82;68.92;101198.87;1772799;81;21129;-73
2023/09/25 02:11:26;;;;;;;15.70;9.63;;;;;;;17.82;68.84;101195.56;1774947;81;21150;-73
2023/09/25 02:13:57;;;;;;;15.45;9.40;;;;;;;17.84;68.63;101198.95;1774556;81;21562;-74
2023/09/25 02:16:27;;;;;;;17.57;10.03;;;;;;;17.84;68.49;101203.11;1774565;81;21153;-72
2023/09/25 02:18:57;;;;;;;19.85;9.98;;;;;;;17.82;68.44;101199.72;1774530;81;21566;-71
2023/09/25 02:21:27;;;;;;;16.85;9.35;;;;;;;17.80;68.36;101200.48;1774757;81;21648;-73
2023/09/25 02:23:58;;;;;;;18.10;9.75;;;;;;;17.81;68.46;101204.95;1774481;81;21570;-72
2023/09/25 02:26:28;;;;;;;18.80;9.85;;;;;;;17.78;68.58;101204.02;1774911;81;21127;-73
2023/09/25 02:28:57;;;;;;;16.25;9.23;;;;;;;17.78;68.74;101212.33;1774733;81;21150;-73
2023/09/25 02:31:27;;;;;;;19.87;10.48;;;;;;;17.77;68.79;101214.80;1774491;81;21123;-72
2023/09/25 02:33:56;;;;;;;22.42;10.13;;;;;;;17.74;68.81;101206.92;1774691;81;21182;-72
2023/09/25 02:36:25;;;;;;;17.70;9.63;;;;;;;17.69;69.01;101209.52;1774625;81;21087;-72
2023/09/25 02:38:56;;;;;;;15.28;9.70;;;;;;;17.64;69.26;101212.94;1774768;81;21150;-72
2023/09/25 02:41:25;;;;;;;18.32;10.00;;;;;;;17.57;69.46;101209.91;1774544;80;21589;-73
2023/09/25 02:43:54;;;;;;;17.32;9.85;;;;;;;17.51;69.86;101203.84;1774615;81;21182;-73
2023/09/25 02:46:23;;;;;;;18.15;10.18;;;;;;;17.41;70.21;101206.56;1774775;81;21147;-74
2023/09/25 02:48:52;;;;;;;16.07;9.70;;;;;;;17.36;70.59;101209.16;1774626;81;21589;-73
2023/09/25 02:51:21;;;;;;;18.55;10.10;;;;;;;17.34;70.86;101207.68;1774667;81;21126;-72
2023/09/25 02:53:52;;;;;;;21.65;10.88;;;;;;;17.33;71.06;101208.75;1774487;81;21123;-72
2023/09/25 02:56:21;;;;;;;21.70;10.30;;;;;;;17.32;71.27;101209.28;1774741;81;21147;-72
2023/09/25 02:58:50;;;;;;;18.25;9.85;;;;;;;17.31;71.48;101209.52;1774773;81;21158;-73
2023/09/25 03:01:20;;;;;;;16.73;9.78;;;;;;;17.24;71.61;101213.70;1775105;81;21165;-74
2023/09/25 03:03:50;;;;;;;16.50;9.90;;;;;;;17.22;71.92;101211.69;1774468;81;21185;-72
2023/09/25 03:06:19;;;;;;;15.93;9.50;;;;;;;17.21;72.14;101209.99;1774756;81;21357;-73
2023/09/25 03:08:48;;;;;;;16.35;9.88;;;;;;;17.18;72.32;101206.28;1774617;81;21122;-73
2023/09/25 03:11:19;;;;;;;19.32;10.50;;;;;;;17.17;72.51;101214.81;1767866;80;21139;-73
2023/09/25 03:13:50;;;;;;;17.30;10.58;;;;;;;17.15;72.69;101216.95;1767395;81;21139;-74
2023/09/25 03:16:21;;;;;;;16.60;10.28;;;;;;;17.09;72.87;101218.69;1767642;80;21171;-73
2023/09/25 03:18:50;;;;;;;15.50;10.32;;;;;;;17.08;73.12;101218.38;1767659;81;21123;-72
2023/09/25 03:21:20;;;;;;;17.98;9.78;;;;;;;17.08;73.25;101215.06;1767413;81;21612;-73
2023/09/25 03:23:50;;;;;;;18.75;10.25;;;;;;;17.06;73.25;101211.67;1767312;81;21186;-74
2023/09/25 03:26:21;;;;;;;18.35;9.95;;;;;;;17.04;73.45;101215.20;1767282;81;21671;-73
2023/09/25 03:28:50;;;;;;;18.60;9.80;;;;;;;17.00;73.78;101215.86;1767449;81;21144;-73
2023/09/25 03:31:20;;;;;;;15.18;9.65;;;;;;;16.99;74.05;101217.77;1767529;81;21131;-73
2023/09/25 03:33:50;;;;;;;16.37;10.03;;;;;;;16.99;74.26;101215.55;1767488;81;21143;-73
2023/09/25 03:36:19;;;;;;;21.48;10.65;;;;;;;17.00;74.47;101217.23;1767633;81;21123;-73
2023/09/25 03:38:48;;;;;;;18.55;10.38;;;;;;;16.99;74.59;101213.63;1767444;81;21579;-73
2023/09/25 03:41:18;;;;;;;15.63;10.00;;;;;;;16.95;74.71;101210.98;1767688;81;21523;-73
2023/09/25 03:43:47;;;;;;;15.53;9.55;;;;;;;16.93;74.89;101219.19;1767521;81;21116;-75
2023/09/25 03:46:16;;;;;;;18.12;10.75;;;;;;;16.90;75.06;101219.06;1767624;81;21135;-74
2023/09/25 03:48:46;;;;;;;20.62;10.20;;;;;;;16.87;75.28;101220.03;1767453;81;21122;-74
2023/09/25 03:51:16;;;;;;;18.15;10.70;;;;;;;16.88;75.46;101228.12;1767598;81;21163;-73
2023/09/25 03:53:45;;;;;;;16.30;9.68;;;;;;;16.86;75.49;101226.64;1767358;81;21177;-74
2023/09/25 03:56:14;;;;;;;21.87;9.75;;;;;;;16.86;75.57;101230.80;1767441;81;21124;-73
2023/09/25 03:58:45;;;;;;;20.30;10.55;;;;;;;16.85;75.64;101236.02;1767426;81;21198;-72
2023/09/25 04:01:14;;;;;;;15.25;10.45;;;;;;;16.84;75.84;101233.78;1767505;81;21194;-73
2023/09/25 04:03:43;;;;;;;17.20;10.05;;;;;;;16.82;75.95;101241.45;1767305;81;21147;-73
2023/09/25 04:06:12;;;;;;;18.42;10.72;;;;;;;16.82;76.10;101240.60;1767616;81;21162;-74
2023/09/25 04:08:42;;;;;;;18.30;9.70;;;;;;;16.82;76.21;101237.84;1767398;81;21250;-72
2023/09/25 04:11:13;;;;;;;17.82;9.40;;;;;;;16.83;76.30;101250.07;1771092;80;21539;-75
2023/09/25 04:13:43;;;;;;;15.03;10.00;;;;;;;16.85;76.40;101245.70;1772656;80;21191;-73
2023/09/25 04:16:14;;;;;;;17.65;9.85;;;;;;;16.87;76.38;101249.09;1772592;81;21628;-73
2023/09/25 04:18:45;;;;;;;18.48;9.80;;;;;;;16.88;76.53;101254.95;1772523;81;21115;-74
2023/09/25 04:21:14;;;;;;;19.67;10.30;;;;;;;16.87;76.62;101261.02;1772568;81;21617;-75
2023/09/25 04:23:43;;;;;;;15.45;9.60;;;;;;;16.87;76.73;101262.94;1772560;81;21635;-74
2023/09/25 04:26:13;;;;;;;15.70;9.10;;;;;;;16.89;76.81;101260.80;1772787;81;21190;-74
2023/09/25 04:28:42;;;;;;;20.27;10.43;;;;;;;16.93;76.79;101266.25;1772746;81;21119;-73
2023/09/25 04:31:12;;;;;;;17.87;11.08;;;;;;;16.97;76.80;101270.28;1772847;81;21162;-73
2023/09/25 04:33:41;;;;;;;16.95;10.50;;;;;;;17.00;76.82;101272.62;1772633;81;21571;-74
2023/09/25 04:36:12;;;;;;;21.52;11.55;;;;;;;17.01;76.84;101284.86;1772961;81;21118;-73
2023/09/25 04:38:43;;;;;;;23.92;11.50;;;;;;;17.03;76.81;101286.02;1772657;81;21155;-73
2023/09/25 04:41:12;;;;;;;19.55;10.38;;;;;;;17.01;76.85;101291.78;1773018;81;21119;-73
2023/09/25 04:43:41;;;;;;;20.10;11.63;;;;;;;17.03;76.93;101297.95;1772626;80;21602;-74
2023/09/25 04:46:10;;;;;;;22.87;11.65;;;;;;;17.08;76.92;101298.14;1772671;81;21138;-74
2023/09/25 04:48:40;;;;;;;20.35;11.90;;;;;;;17.12;76.90;101305.48;1772734;81;21115;-73
2023/09/25 04:51:09;;;;;;;21.33;11.10;;;;;;;17.18;76.92;101305.14;1772667;81;21116;-73
2023/09/25 04:53:38;;;;;;;24.23;11.48;;;;;;;17.26;76.72;101301.59;1772595;81;21602;-73
2023/09/25 04:56:07;;;;;;;21.25;11.25;;;;;;;17.32;76.48;101297.94;1772637;81;21598;-74
2023/09/25 04:58:36;;;;;;;22.82;11.95;;;;;;;17.40;76.23;101293.53;1772661;81;21158;-74
2023/09/25 05:01:06;;;;;;;26.02;12.10;;;;;;;17.44;76.11;101292.02;1772662;81;21200;-73
2023/09/25 05:03:35;;;;;;;23.60;12.35;;;;;;;17.51;76.10;101301.67;1772457;81;21091;-73
2023/09/25 05:06:11;;;;;;;29.30;12.70;;;;;;;17.59;75.90;101297.83;1772657;81;21566;-73
2023/09/25 05:08:41;;;;;;;24.07;13.00;;;;;;;17.66;75.63;101298.64;1772760;81;21146;-72
2023/09/25 05:11:11;;;;;;;25.15;12.25;;;;;;;17.70;75.40;101298.00;1769386;80;21122;-73
2023/09/25 05:13:42;;;;;;;22.37;13.15;;;;;;;17.74;75.25;101302.03;1767304;81;21722;-74
2023/09/25 05:16:11;;;;;;;29.20;13.75;;;;;;;17.79;75.13;101303.28;1767373;81;21147;-74
2023/09/25 05:18:40;;;;;;;30.95;14.73;;;;;;;17.83;75.11;101300.38;1767607;81;21135;-73
2023/09/25 05:21:09;;;;;;;23.77;13.95;;;;;;;17.89;75.02;101313.34;1767433;81;21575;-72
2023/09/25 05:23:39;;;;;;;24.75;13.58;;;;;;;17.95;74.89;101315.22;1767419;81;21197;-73
2023/09/25 05:26:10;;;;;;;25.25;14.18;;;;;;;18.01;74.74;101322.64;1767456;81;21558;-73
2023/09/25 05:28:39;;;;;;;24.45;12.45;;;;;;;18.10;74.47;101321.83;1767428;81;21120;-74
2023/09/25 05:31:08;;;;;;;23.02;12.18;;;;;;;18.19;74.06;101324.64;1767409;81;21631;-75
2023/09/25 05:33:36;;;;;;;25.92;12.00;;;;;;;18.28;73.71;101330.25;1767408;81;21111;-73
2023/09/25 05:36:06;;;;;;;16.95;10.35;;;;;;;18.37;73.16;101328.90;1767708;81;21111;-73
2023/09/25 05:38:35;;;;;;;19.40;10.80;;;;;;;18.46;72.22;101320.59;1767474;81;21220;-73
2023/09/25 05:41:03;;;;;;;16.60;10.23;;;;;;;18.53;71.16;101317.22;1767702;81;21092;-74
2023/09/25 05:43:32;;;;;;;17.62;9.38;;;;;;;18.61;70.09;101322.52;1767786;81;21159;-73
2023/09/25 05:46:02;;;;;;;16.30;8.88;;;;;;;18.68;68.96;101324.69;1767824;81;21103;-74
2023/09/25 05:48:30;;;;;;;19.15;9.10;;;;;;;18.74;67.78;101326.23;1767695;80;21139;-74
2023/09/25 05:51:00;;;;;;;25.55;10.23;;;;;;;18.80;66.96;101326.70;1767442;81;21131;-73
2023/09/25 05:53:30;;;;;;;16.02;9.10;;;;;;;18.85;66.49;101331.88;1767366;81;21119;-73
2023/09/25 05:55:58;;;;;;;22.13;10.25;;;;;;;18.90;66.23;101327.06;1767562;80;21162;-75
2023/09/25 05:58:27;;;;;;;18.10;10.15;;;;;;;18.95;66.05;101338.33;1767567;81;21155;-75
2023/09/25 06:00:57;;;;;;;19.57;9.73;;;;;;;19.01;65.90;101331.85;1767737;81;21115;-73
2023/09/25 06:03:27;;;;;;;18.92;10.13;;;;;;;19.08;65.85;101340.95;1767362;81;21138;-75
2023/09/25 06:05:56;;;;;;;20.37;10.25;;;;;;;19.13;65.75;101341.12;1767341;81;21099;-74
2023/09/25 06:08:25;;;;;;;22.25;11.10;;;;;;;19.19;65.59;101342.97;1767682;81;21087;-74
2023/09/25 06:11:02;;;;;;;21.55;10.88;;;;;;;19.23;65.39;101353.93;1769224;80;21159;-73
2023/09/25 06:13:32;;;;;;;17.52;10.40;;;;;;;19.30;65.23;101349.68;1772597;81;21119;-74
2023/09/25 06:16:01;;;;;;;22.75;11.05;;;;;;;19.35;65.19;101350.38;1772844;81;21119;-75
2023/09/25 06:18:31;;;;;;;21.52;12.05;;;;;;;19.40;65.20;101339.41;1772522;81;21166;-74
2023/09/25 06:21:00;;;;;;;22.50;10.25;;;;;;;19.46;65.22;101342.64;1772674;81;21111;-74
2023/09/25 06:23:30;;;;;;;18.25;10.43;;;;;;;19.50;65.30;101342.48;1772714;81;21159;-75
2023/09/25 06:26:01;;;;;;;17.75;10.23;;;;;;;19.54;65.51;101351.58;1772744;81;21119;-74
2023/09/25 06:28:32;;;;;;;24.43;10.95;;;;;;;19.58;65.86;101357.52;1772836;81;21586;-74
2023/09/25 06:31:02;;;;;;;22.25;10.93;;;;;;;19.63;66.18;101354.88;1772626;80;21151;-75
2023/09/25 06:33:31;;;;;;;17.37;10.08;;;;;;;19.67;66.50;101356.11;1772792;81;21150;-72
2023/09/25 06:36:00;;;;;;;16.97;10.28;;;;;;;19.71;66.77;101350.38;1772691;81;21630;-74
2023/09/25 06:38:29;;;;;;;18.37;10.78;;;;;;;19.75;67.06;101350.22;1772701;81;21206;-75
2023/09/25 06:40:58;;;;;;;18.75;10.70;;;;;;;19.80;67.21;101360.64;1772831;81;21150;-72
2023/09/25 06:43:27;;;;;;;16.65;10.00;;;;;;;19.84;67.42;101364.65;1772517;81;21620;-73
2023/09/25 06:45:57;;;;;;;14.78;9.65;;;;;;;19.85;67.53;101367.20;1772708;81;21594;-74
2023/09/25 06:48:27;;;;;;;15.95;8.70;;;;;;;19.88;67.67;101376.46;1772552;81;21135;-73
2023/09/25 06:50:57;;;;;;;18.23;8.75;;;;;;;19.92;67.71;101376.30;1772496;81;21119;-73
2023/09/25 06:53:26;;;;;;;12.40;8.68;;;;;;;19.92;67.77;101374.91;1772580;81;21620;-74
2023/09/25 06:55:56;;;;;;;12.68;8.78;;;;;;;19.91;68.01;101376.53;1772506;80;21143;-73
2023/09/25 06:58:25;;;;;;;17.75;9.33;;;;;;;19.89;68.38;101396.23;1773034;80;21459;-72
2023/09/25 07:00:55;;;;;;;15.35;8.93;;;;;;;19.90;68.54;101381.78;1772528;81;21755;-73
2023/09/25 07:03:26;;;;;;;15.32;8.73;;;;;;;19.90;68.63;101379.86;1772603;81;21143;-74
2023/09/25 07:05:56;;;;;;;16.27;9.10;;;;;;;19.95;68.87;101397.23;1772438;81;21608;-72
2023/09/25 07:08:27;;;;;;;16.02;9.25;;;;;;;19.98;69.05;101391.73;1772561;81;21147;-72
2023/09/25 07:10:58;;;;;;;17.77;9.70;;;;;;;20.01;69.32;101401.00;1772871;81;21131;-74
2023/09/25 07:13:27;;;;;;;17.30;9.63;;;;;;;20.04;69.56;101394.97;1774436;81;21134;-74
2023/09/25 07:16:05;;;;;;;19.02;9.73;;;;;;;20.09;69.68;101404.30;1774444;80;21174;-72
2023/09/25 07:18:35;;;;;;;15.05;9.15;;;;;;;20.14;69.90;101406.37;1774465;81;21119;-74
2023/09/25 07:21:05;;;;;;;15.80;8.63;;;;;;;20.19;70.19;101402.38;1774403;81;21142;-75
2023/09/25 07:23:35;;;;;;;12.13;8.98;;;;;;;20.24;70.26;101410.86;1774699;80;21542;-74
2023/09/25 07:26:09;;;;;;;18.27;9.35;;;;;;;20.28;70.46;101409.30;1774489;80;21218;-75
2023/09/25 07:28:39;;;;;;;13.95;9.55;;;;;;;20.32;70.71;101406.89;1753083;81;21616;-72
2023/09/25 07:31:11;;;;;;;20.65;9.83;;;;;;;20.36;70.91;101409.50;1774535;80;21150;-73
2023/09/25 07:33:40;;;;;;;13.13;10.00;;;;;;;20.39;71.03;101411.81;1774577;81;21151;-74
2023/09/25 07:36:09;;;;;;;19.57;9.33;;;;;;;20.43;71.11;101410.28;1774577;81;21135;-73
2023/09/25 07:38:38;;;;;;;14.33;8.75;;;;;;;20.48;70.90;101413.20;1774441;81;21140;-74
2023/09/25 07:41:08;;;;;;;14.68;9.25;;;;;;;20.55;70.76;101409.76;1774522;81;21154;-74
2023/09/25 07:43:37;;;;;;;13.20;9.05;;;;;;;20.62;70.54;101415.22;1774548;81;21119;-74
2023/09/25 07:46:08;;;;;;;16.25;9.80;;;;;;;20.81;70.10;101416.86;1771750;80;21600;-74
2023/09/25 07:48:38;;;;;;;13.60;8.70;;;;;;;21.18;69.01;101420.25;1774632;80;21546;-73
2023/09/25 07:51:08;;;;;;;12.70;8.65;;;;;;;21.56;67.06;101423.97;1774408;81;21122;-73
2023/09/25 07:53:39;;;;;;;13.25;8.08;;;;;;;21.99;64.48;101427.66;1774314;81;21581;-73
2023/09/25 07:56:08;;;;;;;14.30;7.80;;;;;;;22.44;63.19;101422.16;1774425;81;21115;-73
2023/09/25 07:58:39;;;;;;;14.60;7.20;;;;;;;22.97;61.20;101434.87;1774433;81;21162;-73
2023/09/25 08:01:12;;;;;;;10.88;7.00;;;;;;;23.45;59.15;101431.98;1774633;81;21590;-73
2023/09/25 08:03:41;;;;;;;12.43;7.25;;;;;;;23.87;56.90;101435.09;1774391;80;21146;-74
2023/09/25 08:06:12;;;;;;;12.90;6.17;;;;;;;24.16;55.29;101428.74;1774669;81;21027;-74
2023/09/25 08:08:42;;;;;;;10.45;6.78;;;;;;;24.49;54.28;101436.13;1774330;79;21029;-76
2023/09/25 08:11:15;;;;;;;10.98;7.05;;;;;;;24.86;52.94;101429.20;1777160;80;21162;-71
2023/09/25 08:13:44;;;;;;;13.45;6.60;;;;;;;25.19;51.75;101434.25;1787964;80;21025;-70
2023/09/25 08:16:16;;;;;;;13.08;7.30;;;;;;;25.42;50.96;101433.86;1789950;79;21118;-71
2023/09/25 08:18:45;;;;;;;14.55;7.37;;;;;;;25.58;50.07;101435.64;1798089;79;21078;-71
2023/09/25 08:21:15;;;;;;;15.15;7.15;;;;;;;25.63;49.19;101424.16;1737068;82;21513;-71
2023/09/25 08:23:44;;;;;;;12.70;7.17;;;;;;;25.62;49.29;101431.73;1719489;83;21085;-71
2023/09/25 08:26:16;;;;;;;14.60;7.37;;;;;;;25.68;48.97;101439.65;1744083;82;21103;-71
2023/09/25 08:28:45;;;;;;;14.00;7.22;;;;;;;25.86;49.10;101430.74;1762869;81;21090;-71
2023/09/25 08:31:14;;;;;;;14.80;6.95;;;;;;;26.08;48.41;101427.20;1751283;81;21023;-71
2023/09/25 08:33:43;;;;;;;14.78;7.37;;;;;;;26.24;48.21;101439.33;1752689;81;21072;-70
2023/09/25 08:36:14;;;;;;;16.52;7.22;;;;;;;26.40;47.29;101434.05;1751289;82;21534;-70
2023/09/25 08:38:43;;;;;;;15.00;7.67;;;;;;;26.43;47.01;101443.90;1751253;82;21842;-72
2023/09/25 08:41:12;;;;;;;11.68;6.97;;;;;;;26.41;46.79;101441.36;1751426;82;21064;-70
2023/09/25 08:43:42;;;;;;;12.35;7.30;;;;;;;26.33;46.64;101434.88;1751438;82;21076;-71
2023/09/25 08:46:11;;;;;;;11.05;7.40;;;;;;;26.00;46.86;101450.17;1751281;82;21080;-71
2023/09/25 08:48:40;;;;;;;15.90;7.17;;;;;;;26.00;46.86;101450.17;1751406;82;21088;-71
2023/09/25 08:51:09;;;;;;;9.98;6.78;;;;;;;25.90;47.04;101450.98;1751385;82;21078;-72
2023/09/25 08:53:39;;;;;;;12.18;7.20;;;;;;;25.79;46.73;101448.41;1751440;82;21063;-71
2023/09/25 08:56:12;;;;;;;13.85;6.97;;;;;;;25.65;47.45;101447.18;1732156;83;21039;-71
2023/09/25 08:58:43;;;;;;;11.78;6.78;;;;;;;25.58;47.44;101451.08;1721252;83;21081;-72
2023/09/25 09:01:12;;;;;;;13.78;6.75;;;;;;;25.51;47.72;101448.23;1750746;82;21063;-69
2023/09/25 09:03:42;;;;;;;15.30;7.20;;;;;;;25.45;47.64;101445.95;1751447;82;20996;-72
2023/09/25 09:06:11;;;;;;;14.63;7.00;;;;;;;25.37;47.78;101453.48;1721102;83;21102;-72
2023/09/25 09:08:45;;;;;;;14.58;7.00;;;;;;;25.25;47.80;101448.59;1751416;81;21032;-72
2023/09/25 09:11:11;;;;;;;13.08;7.08;;;;;;;25.13;48.16;101438.97;1751368;81;21035;-70
2023/09/25 09:13:47;;;;;;;14.95;7.30;;;;;;;25.08;48.17;101439.50;1720895;82;21015;-71
2023/09/25 09:16:18;;;;;;;11.60;6.92;;;;;;;25.01;48.42;101441.69;1751661;82;21023;-72
2023/09/25 09:18:47;;;;;;;11.88;6.87;;;;;;;24.98;48.42;101446.43;1732208;83;21111;-71
2023/09/25 09:21:27;;;;;;;14.98;7.30;;;;;;;24.93;48.46;101446.64;1721201;83;21067;-73
2023/09/25 09:23:58;;;;;;;10.03;6.83;;;;;;;24.91;48.83;101448.88;1750956;82;21447;-68
2023/09/25 09:26:49;;;;;;;11.40;7.25;;;;;;;24.89;48.77;101435.67;1734400;82;21370;-71
2023/09/25 09:29:21;;;;;;;10.95;7.30;;;;;;;24.84;48.76;101437.03;1797501;80;21049;-74
2023/09/25 09:31:56;;;;;;;13.50;7.40;;;;;;;24.82;49.14;101440.66;1821950;77;21066;-73
2023/09/25 09:34:26;;;;;;;12.30;7.50;;;;;;;24.83;49.17;101442.91;1796213;80;21026;-73
2023/09/25 09:36:57;;;;;;;10.38;6.70;;;;;;;24.81;49.20;101441.78;1830156;78;21041;-72
2023/09/25 09:39:27;;;;;;;20.48;7.45;;;;;;;24.78;49.25;101435.86;1822028;79;20998;-70
2023/09/25 09:41:56;;;;;;;15.60;7.37;;;;;;;24.75;49.38;101440.04;1795864;80;21093;-71
2023/09/25 09:44:28;;;;;;;15.10;7.35;;;;;;;24.75;49.39;101441.44;1830084;78;21052;-71
2023/09/25 09:46:58;;;;;;;14.70;7.50;;;;;;;24.76;49.28;101440.33;1822095;79;21041;-71
2023/09/25 09:49:27;;;;;;;19.05;8.23;;;;;;;24.77;49.46;101443.42;1795862;80;21042;-70
2023/09/25 09:51:57;;;;;;;14.73;7.80;;;;;;;24.77;49.45;101443.98;1830184;78;21488;-74
2023/09/25 09:54:27;;;;;;;16.35;8.10;;;;;;;24.78;49.51;101442.86;1822088;79;21492;-73
2023/09/25 09:56:59;;;;;;;12.63;7.05;;;;;;;24.80;49.52;101440.08;1795916;80;21109;-72
2023/09/25 09:59:30;;;;;;;12.93;7.33;;;;;;;24.81;49.40;101437.57;1821932;79;21074;-71
2023/09/25 10:02:02;;;;;;;11.95;6.95;;;;;;;24.80;49.10;101428.88;1796327;80;21027;-70
2023/09/25 10:04:32;;;;;;;12.80;6.65;;;;;;;24.82;49.08;101422.99;1793462;79;21093;-73
2023/09/25 10:07:05;;;;;;;14.78;7.60;;;;;;;24.82;49.06;101426.64;1795825;80;21039;-72
2023/09/25 10:09:37;;;;;;;14.07;6.87;;;;;;;24.85;49.19;101419.66;1821887;77;20967;-72
2023/09/25 10:12:10;;;;;;;13.53;6.83;;;;;;;24.88;49.08;101410.70;1795913;80;21539;-73
2023/09/25 10:14:43;;;;;;;13.62;6.67;;;;;;;24.91;48.94;101413.82;1818996;77;21057;-69
2023/09/25 10:17:13;;;;;;;12.68;6.28;;;;;;;24.94;48.57;101413.28;1765893;80;21007;-70
2023/09/25 10:19:48;;;;;;;18.27;6.60;;;;;;;24.96;48.39;101408.25;1822019;79;21073;-70
2023/09/25 10:22:30;;;;;;;13.10;7.10;;;;;;;25.00;48.23;101409.14;1795942;80;21047;-72
2023/09/25 10:25:04;;;;;;;17.60;7.08;;;;;;;25.02;48.35;101402.16;1821518;79;20978;-70
2023/09/25 10:27:38;;;;;;;17.25;6.62;;;;;;;25.05;48.32;101401.61;1794442;80;21030;-69
2023/09/25 10:30:18;;;;;;;14.53;6.50;;;;;;;25.08;48.26;101394.06;1791843;80;21019;-71
2023/09/25 10:32:51;;;;;;;;;;;;;;;25.10;48.01;101390.98;1826417;78;21043;-69
2023/09/25 10:35:43;;;;;;;16.32;7.65;;;;;;;25.12;47.78;101393.80;1824154;79;20198;-69
2023/09/25 10:38:18;;;;;;;17.12;7.17;;;;;;;25.15;47.91;101382.05;1824161;79;21078;-70
2023/09/25 10:40:50;;;;;;;16.10;6.90;;;;;;;25.19;48.04;101383.75;1859120;77;21042;-70
2023/09/25 10:43:22;;;;;;;10.78;6.37;;;;;;;25.19;47.92;101383.19;1823708;79;21019;-71
2023/09/25 10:45:54;;;;;;;15.88;6.95;;;;;;;25.22;48.06;101388.26;1791492;80;21038;-70
2023/09/25 10:48:26;;;;;;;8.50;5.50;;;;;;;25.23;47.27;101390.51;1861479;77;21014;-69
2023/09/25 10:50:56;;;;;;;18.80;7.72;;;;;;;25.23;47.12;101385.73;1791629;80;20987;-71
2023/09/25 10:53:26;;;;;;;13.80;6.90;;;;;;;25.24;47.39;101385.19;1861219;77;21010;-70
2023/09/25 10:55:57;;;;;;;15.15;6.35;;;;;;;25.24;47.75;101383.22;1791138;80;21267;-70
2023/09/25 10:58:26;;;;;;;12.07;6.17;;;;;;;25.24;47.74;101385.19;1861688;77;21026;-73
2023/09/25 11:00:55;;;;;;;14.70;7.12;;;;;;;25.23;47.07;101381.53;1826832;77;21042;-70
2023/09/25 11:03:24;;;;;;;11.85;5.17;;;;;;;25.23;46.79;101376.48;1791293;80;21532;-71
2023/09/25 11:05:54;;;;;;;21.27;6.90;;;;;;;25.26;46.10;101367.52;1861090;77;20983;-72
2023/09/25 11:08:22;;;;;;;16.67;6.83;;;;;;;25.31;45.78;101368.11;1791318;80;21325;-71
2023/09/25 11:10:52;;;;;;;11.48;5.58;;;;;;;25.33;45.37;101375.13;1826651;77;21042;-71
2023/09/25 11:13:21;;;;;;;17.87;6.30;;;;;;;25.37;44.59;101370.70;1826459;77;21524;-70
2023/09/25 11:15:50;;;;;;;13.60;5.60;;;;;;;25.42;44.75;101363.70;1791314;80;21074;-71
2023/09/25 11:18:22;;;;;;;21.73;6.17;;;;;;;25.46;44.63;101362.60;1861690;77;21054;-72
2023/09/25 11:20:53;;;;;;;16.70;5.75;;;;;;;25.49;44.83;101368.52;1791321;80;21062;-71
2023/09/25 11:23:22;;;;;;;9.15;4.30;;;;;;;25.53;44.79;101354.22;1861444;77;21670;-71
2023/09/25 11:25:52;;;;;;;13.13;4.28;;;;;;;25.57;43.29;101351.14;1786116;80;21062;-71
2023/09/25 11:28:24;;;;;;;8.28;4.15;;;;;;;25.61;42.29;101357.05;1817501;78;21033;-70